createdAt,value
2022-10-23T00:01:48.635Z,13.40
2022-10-23T00:04:20.573Z,13.40
2022-10-23T00:06:48.420Z,13.40
2022-10-23T00:09:18.293Z,13.40
2022-10-23T00:11:51.234Z,13.40
2022-10-23T00:14:25.670Z,13.40
2022-10-23T00:16:55.920Z,13.40
2022-10-23T00:19:25.889Z,13.30
2022-10-23T00:21:53.215Z,13.30
2022-10-23T00:24:25.015Z,13.30
2022-10-23T00:26:52.561Z,13.30
2022-10-23T00:29:21.887Z,13.40
2022-10-23T00:31:51.821Z,13.40
2022-10-23T00:34:25.921Z,13.40
2022-10-23T00:36:56.213Z,13.40
2022-10-23T00:39:28.650Z,13.40
2022-10-23T00:41:58.849Z,13.30
2022-10-23T00:44:28.924Z,13.30
2022-10-23T00:46:59.890Z,13.40
2022-10-23T00:49:33.580Z,13.30
2022-10-23T00:52:09.625Z,13.30
2022-10-23T00:54:39.813Z,13.40
2022-10-23T00:57:12.198Z,13.40
2022-10-23T00:59:39.329Z,13.40
2022-10-23T01:02:07.696Z,13.40
2022-10-23T01:04:37.832Z,13.40
2022-10-23T01:07:32.490Z,13.40
2022-10-23T01:10:30.815Z,13.40
2022-10-23T01:13:21.141Z,13.40
2022-10-23T01:16:07.750Z,13.40
2022-10-23T01:19:00.428Z,13.40
2022-10-23T01:22:05.000Z,13.30
2022-10-23T01:24:42.395Z,13.30
2022-10-23T01:27:20.947Z,13.30
2022-10-23T01:30:06.427Z,13.20
2022-10-23T01:32:49.158Z,13.20
2022-10-23T01:35:28.681Z,13.10
2022-10-23T01:38:16.583Z,13.20
2022-10-23T01:41:07.319Z,13.20
2022-10-23T01:43:52.333Z,13.20
2022-10-23T01:46:25.156Z,13.20
2022-10-23T01:48:59.106Z,13.20
2022-10-23T01:51:28.674Z,13.20
2022-10-23T01:54:09.111Z,13.20
2022-10-23T01:56:39.044Z,13.30
2022-10-23T01:59:10.874Z,13.30
2022-10-23T02:01:48.214Z,13.30
2022-10-23T02:04:22.135Z,13.30
2022-10-23T02:06:52.137Z,13.40
2022-10-23T02:09:19.411Z,13.40
2022-10-23T02:12:23.777Z,13.40
2022-10-23T02:14:56.445Z,13.30
2022-10-23T02:17:43.783Z,13.40
2022-10-23T02:20:26.106Z,13.40
2022-10-23T02:23:03.404Z,13.40
2022-10-23T02:25:44.070Z,13.40
2022-10-23T02:28:19.450Z,13.40
2022-10-23T02:30:53.633Z,13.40
2022-10-23T02:33:21.427Z,13.40
2022-10-23T02:35:52.449Z,13.40
2022-10-23T02:38:42.446Z,13.40
2022-10-23T02:41:44.285Z,13.40
2022-10-23T02:44:28.141Z,13.40
2022-10-23T02:47:17.122Z,13.40
2022-10-23T02:50:03.310Z,13.40
2022-10-23T02:52:35.454Z,13.40
2022-10-23T02:55:25.208Z,13.40
2022-10-23T02:58:16.718Z,13.40
2022-10-23T03:00:52.342Z,13.40
2022-10-23T03:03:30.592Z,13.50
2022-10-23T03:05:58.180Z,13.50
2022-10-23T03:08:28.579Z,13.50
2022-10-23T03:10:56.663Z,13.50
2022-10-23T03:13:26.662Z,13.50
2022-10-23T03:16:01.440Z,13.40
2022-10-23T03:18:28.497Z,13.50
2022-10-23T03:20:59.230Z,13.50
2022-10-23T03:23:33.591Z,13.50
2022-10-23T03:26:01.609Z,13.50
2022-10-23T03:28:38.069Z,13.50
2022-10-23T03:31:07.678Z,13.50
2022-10-23T03:33:41.611Z,13.50
2022-10-23T03:36:13.635Z,13.50
2022-10-23T03:38:40.757Z,13.50
2022-10-23T03:41:10.558Z,13.50
2022-10-23T03:43:40.073Z,13.50
2022-10-23T03:46:09.845Z,13.50
2022-10-23T03:48:39.189Z,13.50
2022-10-23T03:51:09.322Z,13.60
2022-10-23T03:53:42.994Z,13.50
2022-10-23T03:56:10.313Z,13.50
2022-10-23T03:58:39.746Z,13.60
2022-10-23T04:01:07.610Z,13.50
2022-10-23T04:03:36.621Z,13.50
2022-10-23T04:06:09.215Z,13.50
2022-10-23T04:08:38.997Z,13.50
2022-10-23T04:11:13.205Z,13.50
2022-10-23T04:13:47.546Z,13.60
2022-10-23T04:16:19.873Z,13.50
2022-10-23T04:18:49.461Z,13.50
2022-10-23T04:21:21.180Z,13.50
2022-10-23T04:23:48.353Z,13.50
2022-10-23T04:26:23.065Z,13.60
2022-10-23T04:28:54.273Z,13.50
2022-10-23T04:31:23.960Z,13.60
2022-10-23T04:33:55.869Z,13.60
2022-10-23T04:36:45.631Z,13.60
2022-10-23T04:39:23.181Z,13.60
2022-10-23T04:41:50.381Z,13.60
2022-10-23T04:44:19.710Z,13.60
2022-10-23T04:46:47.057Z,13.60
2022-10-23T04:49:16.667Z,13.60
2022-10-23T04:51:50.640Z,13.60
2022-10-23T04:54:44.185Z,13.60
2022-10-23T04:57:35.594Z,13.60
2022-10-23T05:00:10.913Z,13.60
2022-10-23T05:02:50.676Z,13.60
2022-10-23T05:05:18.484Z,13.60
2022-10-23T05:08:05.946Z,13.60
2022-10-23T05:10:49.710Z,13.60
2022-10-23T05:13:26.561Z,13.60
2022-10-23T05:15:53.760Z,13.60
2022-10-23T05:18:39.352Z,13.70
2022-10-23T05:21:16.655Z,13.60
2022-10-23T05:23:54.761Z,13.60
2022-10-23T05:26:25.266Z,13.60
2022-10-23T05:28:56.318Z,13.60
2022-10-23T05:31:26.245Z,13.60
2022-10-23T05:34:09.961Z,13.60
2022-10-23T05:36:45.472Z,13.60
2022-10-23T05:39:21.650Z,13.60
2022-10-23T05:41:54.976Z,13.70
2022-10-23T05:44:24.913Z,13.70
2022-10-23T05:47:05.329Z,13.70
2022-10-23T05:49:53.794Z,13.70
2022-10-23T05:52:51.766Z,13.70
2022-10-23T05:55:44.963Z,13.70
2022-10-23T05:58:36.960Z,13.70
2022-10-23T06:01:32.901Z,13.70
2022-10-23T06:04:05.605Z,13.70
2022-10-23T06:06:49.546Z,13.70
2022-10-23T06:09:17.163Z,13.70
2022-10-23T06:11:50.471Z,13.70
2022-10-23T06:14:23.145Z,13.70
2022-10-23T06:16:52.308Z,13.70
2022-10-23T06:19:24.626Z,13.70
2022-10-23T06:22:02.595Z,13.70
2022-10-23T06:24:45.232Z,13.70
2022-10-23T06:27:14.259Z,13.70
2022-10-23T06:29:45.131Z,13.60
2022-10-23T06:32:12.450Z,13.60
2022-10-23T06:34:41.890Z,13.60
2022-10-23T06:37:11.791Z,13.60
2022-10-23T06:39:59.191Z,13.60
2022-10-23T06:42:46.762Z,13.60
2022-10-23T06:45:36.793Z,13.60
2022-10-23T06:48:26.754Z,13.60
2022-10-23T06:51:08.470Z,13.60
2022-10-23T06:53:41.910Z,13.60
2022-10-23T06:56:29.275Z,13.60
2022-10-23T06:58:57.209Z,13.60
2022-10-23T07:01:26.934Z,13.60
2022-10-23T07:03:56.430Z,13.60
2022-10-23T07:06:26.334Z,13.50
2022-10-23T07:08:57.016Z,13.60
2022-10-23T07:11:46.996Z,13.60
2022-10-23T07:14:14.868Z,13.60
2022-10-23T07:16:45.798Z,13.60
2022-10-23T07:19:13.633Z,13.60
2022-10-23T07:22:13.315Z,13.70
2022-10-23T07:24:54.842Z,13.60
2022-10-23T07:27:29.499Z,13.60
2022-10-23T07:30:00.854Z,13.70
2022-10-23T07:32:35.027Z,13.70
2022-10-23T07:35:05.780Z,13.70
2022-10-23T07:37:39.866Z,13.70
2022-10-23T07:40:08.714Z,13.70
2022-10-23T07:42:45.467Z,13.80
2022-10-23T07:45:15.217Z,13.80
2022-10-23T07:47:52.740Z,13.90
2022-10-23T07:50:23.082Z,13.90
2022-10-23T07:52:52.626Z,14.00
2022-10-23T07:55:27.425Z,14.20
2022-10-23T07:58:07.741Z,14.30
2022-10-23T08:00:52.803Z,14.40
2022-10-23T08:03:32.269Z,14.30
2022-10-23T08:06:00.906Z,14.30
2022-10-23T08:08:28.764Z,14.30
2022-10-23T08:11:02.035Z,14.30
2022-10-23T08:13:35.207Z,14.30
2022-10-23T08:16:06.555Z,14.30
2022-10-23T08:18:56.375Z,14.30
2022-10-23T08:21:24.154Z,14.30
2022-10-23T08:23:58.691Z,14.20
2022-10-23T08:26:29.504Z,14.30
2022-10-23T08:29:03.639Z,14.20
2022-10-23T08:31:40.202Z,14.20
2022-10-23T08:34:24.655Z,14.10
2022-10-23T08:36:56.171Z,14.00
2022-10-23T08:39:25.790Z,14.00
2022-10-23T08:42:27.175Z,14.00
2022-10-23T08:45:12.562Z,13.90
2022-10-23T08:47:49.018Z,13.90
2022-10-23T08:51:25.633Z,14.00
2022-10-23T08:53:56.567Z,14.00
2022-10-23T08:56:32.826Z,14.10
2022-10-23T08:59:32.904Z,14.10
2022-10-23T09:02:08.222Z,14.20
2022-10-23T09:04:40.525Z,14.20
2022-10-23T09:07:13.088Z,14.30
2022-10-23T09:10:14.052Z,14.20
2022-10-23T09:12:43.622Z,14.20
2022-10-23T09:15:13.672Z,14.20
2022-10-23T09:17:45.698Z,14.20
2022-10-23T09:20:21.884Z,14.30
2022-10-23T09:22:55.573Z,14.40
2022-10-23T09:25:35.030Z,14.50
2022-10-23T09:28:05.740Z,14.50
2022-10-23T09:30:41.992Z,14.60
2022-10-23T09:33:22.328Z,14.60
2022-10-23T09:35:57.168Z,14.70
2022-10-23T09:38:33.455Z,14.90
2022-10-23T09:41:08.093Z,14.80
2022-10-23T09:43:37.416Z,14.80
2022-10-23T09:46:10.677Z,14.80
2022-10-23T09:48:47.207Z,14.90
2022-10-23T09:51:20.846Z,14.90
2022-10-23T09:53:51.182Z,15.00
2022-10-23T09:56:24.790Z,15.10
2022-10-23T09:59:22.489Z,15.00
2022-10-23T10:01:58.557Z,15.10
2022-10-23T10:04:44.627Z,15.10
2022-10-23T10:07:24.467Z,15.10
2022-10-23T10:09:58.123Z,15.10
2022-10-23T10:12:50.295Z,15.10
2022-10-23T10:15:19.561Z,15.10
2022-10-23T10:18:18.114Z,15.10
2022-10-23T10:20:53.035Z,15.10
2022-10-23T10:23:31.713Z,15.10
2022-10-23T10:26:26.114Z,15.20
2022-10-23T10:29:30.814Z,15.10
2022-10-23T10:32:32.215Z,15.20
2022-10-23T10:35:04.973Z,15.10
2022-10-23T10:37:45.975Z,15.10
2022-10-23T10:40:41.302Z,15.10
2022-10-23T10:43:36.763Z,15.20
2022-10-23T10:46:25.762Z,15.20
2022-10-23T10:49:10.577Z,15.20
2022-10-23T10:51:49.822Z,15.30
2022-10-23T10:54:35.756Z,15.20
2022-10-23T10:57:26.845Z,15.20
2022-10-23T10:59:57.523Z,15.30
2022-10-23T11:02:41.571Z,15.30
2022-10-23T11:05:26.930Z,15.30
2022-10-23T11:08:16.508Z,15.40
2022-10-23T11:10:50.428Z,15.40
2022-10-23T11:13:36.479Z,15.40
2022-10-23T11:16:12.464Z,15.40
2022-10-23T11:18:45.810Z,15.40
2022-10-23T11:22:07.731Z,15.50
2022-10-23T11:25:31.896Z,15.50
2022-10-23T11:28:37.214Z,15.50
2022-10-23T11:31:11.700Z,15.60
2022-10-23T11:34:11.884Z,15.60
2022-10-23T11:36:50.847Z,15.70
2022-10-23T11:39:40.098Z,15.80
2022-10-23T11:42:29.459Z,15.80
2022-10-23T11:45:01.607Z,15.90
2022-10-23T11:47:40.317Z,15.80
2022-10-23T11:50:07.725Z,15.80
2022-10-23T11:53:13.593Z,15.90
2022-10-23T11:56:17.013Z,16.00
2022-10-23T11:58:53.580Z,16.00
2022-10-23T12:01:31.886Z,16.00
2022-10-23T12:04:17.412Z,16.00
2022-10-23T12:06:59.351Z,15.90
2022-10-23T12:09:52.363Z,15.80
2022-10-23T12:12:29.616Z,15.80
2022-10-23T12:15:29.287Z,15.80
2022-10-23T12:18:15.513Z,16.00
2022-10-23T12:20:56.974Z,16.00
2022-10-23T12:23:30.988Z,15.90
2022-10-23T12:26:01.303Z,15.80
2022-10-23T12:28:56.355Z,15.80
2022-10-23T12:32:05.795Z,15.80
2022-10-23T12:35:04.746Z,15.80
2022-10-23T12:38:15.088Z,15.80
2022-10-23T12:41:02.435Z,15.70
2022-10-23T12:43:36.330Z,15.70
2022-10-23T12:46:26.763Z,15.80
2022-10-23T12:48:58.121Z,15.90
2022-10-23T12:51:35.249Z,15.90
2022-10-23T12:54:03.870Z,15.90
2022-10-23T12:56:37.306Z,15.90
2022-10-23T12:59:13.602Z,15.90
2022-10-23T13:01:43.271Z,16.00
2022-10-23T13:04:44.942Z,16.10
2022-10-23T13:07:17.422Z,16.10
2022-10-23T13:09:46.367Z,16.20
2022-10-23T13:12:30.730Z,16.30
2022-10-23T13:15:03.348Z,16.40
2022-10-23T13:17:54.193Z,16.50
2022-10-23T13:20:26.588Z,16.60
2022-10-23T13:23:26.502Z,16.70
2022-10-23T13:26:00.819Z,16.60
2022-10-23T13:28:44.813Z,16.60
2022-10-23T13:31:17.187Z,16.60
2022-10-23T13:34:01.458Z,16.60
2022-10-23T13:36:34.512Z,16.70
2022-10-23T13:39:14.082Z,16.60
2022-10-23T13:41:47.067Z,16.70
2022-10-23T13:44:21.355Z,16.70
2022-10-23T13:46:56.344Z,16.80
2022-10-23T13:49:26.121Z,16.80
2022-10-23T13:51:58.890Z,16.90
2022-10-23T13:57:03.659Z,17.00
2022-10-23T13:59:33.243Z,16.90
2022-10-23T14:02:05.807Z,16.90
2022-10-23T14:04:37.676Z,16.80
2022-10-23T14:07:09.440Z,16.60
2022-10-23T14:09:39.028Z,16.50
2022-10-23T14:12:09.022Z,16.40
2022-10-23T14:14:41.119Z,16.40
2022-10-23T14:17:08.576Z,16.40
2022-10-23T14:19:38.273Z,16.40
2022-10-23T14:22:05.594Z,16.40
2022-10-23T14:24:40.443Z,16.30
2022-10-23T14:27:12.336Z,16.30
2022-10-23T14:29:42.107Z,16.30
2022-10-23T14:32:11.904Z,16.30
2022-10-23T14:34:42.466Z,16.20
2022-10-23T14:37:12.444Z,16.20
2022-10-23T14:39:39.581Z,16.20
2022-10-23T14:42:09.358Z,16.20
2022-10-23T14:44:36.622Z,16.20
2022-10-23T14:47:08.620Z,16.10
2022-10-23T14:49:40.182Z,16.00
2022-10-23T14:52:10.073Z,16.00
2022-10-23T14:54:40.120Z,16.00
2022-10-23T14:57:12.145Z,15.90
2022-10-23T14:59:39.315Z,16.00
2022-10-23T15:02:11.621Z,15.90
2022-10-23T15:04:41.526Z,15.90
2022-10-23T15:07:08.859Z,15.90
2022-10-23T15:09:39.661Z,15.80
2022-10-23T15:12:10.598Z,15.70
2022-10-23T15:14:45.097Z,15.70
2022-10-23T15:17:15.537Z,15.60
2022-10-23T15:19:47.797Z,15.50
2022-10-23T15:22:18.991Z,15.40
2022-10-23T15:24:52.134Z,15.40
2022-10-23T15:27:22.548Z,15.30
2022-10-23T15:29:52.079Z,15.30
2022-10-23T15:32:19.479Z,15.10
2022-10-23T15:34:49.698Z,14.90
2022-10-23T15:37:22.062Z,14.90
2022-10-23T15:39:52.405Z,14.70
2022-10-23T15:42:19.835Z,14.60
2022-10-23T15:44:49.786Z,14.60
2022-10-23T15:47:19.335Z,14.40
2022-10-23T15:49:46.544Z,14.30
2022-10-23T15:52:13.913Z,14.20
2022-10-23T15:54:41.157Z,14.10
2022-10-23T15:57:10.209Z,14.20
2022-10-23T15:59:37.330Z,14.10
2022-10-23T16:02:07.600Z,14.00
2022-10-23T16:04:35.409Z,14.00
2022-10-23T16:07:04.870Z,13.90
2022-10-23T16:09:34.648Z,13.80
2022-10-23T16:12:07.014Z,13.60
2022-10-23T16:14:36.701Z,13.60
2022-10-23T16:17:04.118Z,13.70
2022-10-23T16:19:37.350Z,13.80
2022-10-23T16:22:10.148Z,13.60
2022-10-23T16:24:37.370Z,13.50
2022-10-23T16:27:07.049Z,13.30
2022-10-23T16:29:39.480Z,13.20
2022-10-23T16:32:06.809Z,13.30
2022-10-23T16:34:34.006Z,13.20
2022-10-23T16:37:04.041Z,13.10
2022-10-23T16:39:48.845Z,13.20
2022-10-23T16:42:48.120Z,13.10
2022-10-23T16:45:34.361Z,13.10
2022-10-23T16:48:06.800Z,13.00
2022-10-23T16:53:15.409Z,13.00
2022-10-23T16:55:42.562Z,13.00
2022-10-23T16:58:12.135Z,12.90
2022-10-23T17:00:39.572Z,12.90
2022-10-23T17:03:07.019Z,12.90
2022-10-23T17:05:35.368Z,12.90
2022-10-23T17:08:12.096Z,12.90
2022-10-23T17:10:39.221Z,12.90
2022-10-23T17:13:09.249Z,12.90
2022-10-23T17:18:10.479Z,12.80
2022-10-23T17:20:39.638Z,12.70
2022-10-23T17:23:09.629Z,12.60
2022-10-23T17:25:40.804Z,12.50
2022-10-23T17:28:12.604Z,12.30
2022-10-23T17:30:44.617Z,12.50
2022-10-23T17:33:16.823Z,12.40
2022-10-23T17:35:45.291Z,12.40
2022-10-23T17:38:18.125Z,12.40
2022-10-23T17:40:47.448Z,12.30
2022-10-23T17:43:19.799Z,12.10
2022-10-23T17:45:51.831Z,12.10
2022-10-23T17:48:19.162Z,12.10
2022-10-23T17:51:00.145Z,12.00
2022-10-23T17:53:29.823Z,12.00
2022-10-23T17:55:56.970Z,12.00
2022-10-23T17:58:26.394Z,11.90
2022-10-23T18:00:58.215Z,11.90
2022-10-23T18:03:25.646Z,12.00
2022-10-23T18:05:57.157Z,11.90
2022-10-23T18:08:29.501Z,12.00
2022-10-23T18:10:56.598Z,12.10
2022-10-23T18:13:26.071Z,12.10
2022-10-23T18:15:53.499Z,12.00
2022-10-23T18:18:23.133Z,12.00
2022-10-23T18:20:50.178Z,12.00
2022-10-23T18:23:17.487Z,12.00
2022-10-23T18:25:45.979Z,11.90
2022-10-23T18:28:13.251Z,11.80
2022-10-23T18:30:40.352Z,11.80
2022-10-23T18:33:12.624Z,11.90
2022-10-23T18:35:50.312Z,11.90
2022-10-23T18:38:22.337Z,11.90
2022-10-23T18:40:55.361Z,12.00
2022-10-23T18:43:42.633Z,12.00
2022-10-23T18:46:14.480Z,12.00
2022-10-23T18:48:50.575Z,11.90
2022-10-23T18:51:23.974Z,11.90
2022-10-23T18:53:53.661Z,11.90
2022-10-23T18:56:26.733Z,11.80
2022-10-23T18:58:58.942Z,11.80
2022-10-23T19:01:34.362Z,11.80
2022-10-23T19:04:05.102Z,11.80
2022-10-23T19:06:37.341Z,11.80
2022-10-23T19:09:13.670Z,11.70
2022-10-23T19:11:43.875Z,11.80
2022-10-23T19:14:11.403Z,11.80
2022-10-23T19:16:53.313Z,11.80
2022-10-23T19:19:27.082Z,11.90
2022-10-23T19:21:57.408Z,11.80
2022-10-23T19:24:41.625Z,11.80
2022-10-23T19:27:08.948Z,11.70
2022-10-23T19:29:42.767Z,11.70
2022-10-23T19:32:12.664Z,11.70
2022-10-23T19:34:45.391Z,11.60
2022-10-23T19:42:14.028Z,11.70
2022-10-23T19:52:06.837Z,11.70
2022-10-23T19:54:34.248Z,11.70
2022-10-23T19:57:02.417Z,11.70
2022-10-23T19:59:32.150Z,11.50
2022-10-23T20:02:02.258Z,11.30
2022-10-23T20:04:29.801Z,11.30
2022-10-23T20:06:56.938Z,11.30
2022-10-23T20:09:29.357Z,11.20
2022-10-23T20:12:00.490Z,11.20
2022-10-23T20:14:28.042Z,11.20
2022-10-23T20:17:01.612Z,11.30
2022-10-23T20:19:31.156Z,11.30
2022-10-23T20:22:03.070Z,11.30
2022-10-23T20:24:31.186Z,11.20
2022-10-23T20:27:03.002Z,11.10
2022-10-23T20:29:33.126Z,11.10
2022-10-23T20:32:02.546Z,11.10
2022-10-23T20:34:34.731Z,11.00
2022-10-23T20:37:04.134Z,11.00
2022-10-23T20:39:35.736Z,11.00
2022-10-23T20:42:07.266Z,11.00
2022-10-23T20:44:39.312Z,11.00
2022-10-23T20:47:11.182Z,11.00
2022-10-23T20:49:43.014Z,11.10
2022-10-23T20:52:10.143Z,11.10
2022-10-23T20:54:38.196Z,11.10
2022-10-23T20:57:07.403Z,11.00
2022-10-23T20:59:41.899Z,11.10
2022-10-23T21:02:13.214Z,11.00
2022-10-23T21:04:40.682Z,11.10
2022-10-23T21:07:11.424Z,11.10
2022-10-23T21:09:43.189Z,11.00
2022-10-23T21:12:12.493Z,11.10
2022-10-23T21:14:42.253Z,11.00
2022-10-23T21:17:16.677Z,11.00
2022-10-23T21:19:44.197Z,11.00
2022-10-23T21:22:11.315Z,11.00
2022-10-23T21:24:40.815Z,10.90
2022-10-23T21:27:15.253Z,11.00
2022-10-23T21:29:54.171Z,11.00
2022-10-23T21:32:21.489Z,11.00
2022-10-23T21:34:55.066Z,11.00
2022-10-23T21:37:24.987Z,11.00
2022-10-23T21:39:54.365Z,11.10
2022-10-23T21:42:23.574Z,11.10
2022-10-23T21:44:53.746Z,11.10
2022-10-23T21:47:23.780Z,11.00
2022-10-23T21:50:01.206Z,11.10
2022-10-23T21:52:34.145Z,11.00
2022-10-23T21:55:01.406Z,10.90
2022-10-23T21:57:33.397Z,10.90
2022-10-23T22:00:00.650Z,10.90
2022-10-23T22:02:32.335Z,10.80
2022-10-23T22:05:04.492Z,10.90
2022-10-23T22:07:31.957Z,10.90
2022-10-23T22:10:04.347Z,11.00
2022-10-23T22:12:34.472Z,11.00
2022-10-23T22:15:07.298Z,11.00
2022-10-23T22:17:34.679Z,11.10
2022-10-23T22:20:01.974Z,11.10
2022-10-23T22:22:33.649Z,11.00
2022-10-23T22:25:03.205Z,11.00
2022-10-23T22:27:32.659Z,11.00
2022-10-23T22:30:03.828Z,11.00
2022-10-23T22:32:31.831Z,11.00
2022-10-23T22:35:01.444Z,11.00
2022-10-23T22:37:30.623Z,11.00
2022-10-23T22:40:02.534Z,10.90
2022-10-23T22:42:33.962Z,11.00
2022-10-23T22:45:04.055Z,11.00
2022-10-23T22:47:31.111Z,11.10
2022-10-23T22:49:58.337Z,11.10
2022-10-23T22:52:25.477Z,11.10
2022-10-23T22:54:52.994Z,11.10
2022-10-23T22:59:57.055Z,11.20
2022-10-23T23:02:24.095Z,11.20
2022-10-23T23:04:55.977Z,11.20
2022-10-23T23:07:23.187Z,11.30
2022-10-23T23:09:50.547Z,11.30
2022-10-23T23:12:22.414Z,11.20
2022-10-23T23:14:52.228Z,11.10
2022-10-23T23:17:23.859Z,11.10
2022-10-23T23:19:51.330Z,11.10
2022-10-23T23:22:20.661Z,11.00
2022-10-23T23:24:52.795Z,11.00
2022-10-23T23:27:22.380Z,11.00
2022-10-23T23:29:49.681Z,11.00
2022-10-23T23:32:24.339Z,11.00
2022-10-23T23:34:54.098Z,10.90
2022-10-23T23:37:24.111Z,10.80
2022-10-23T23:39:54.018Z,10.90
2022-10-23T23:42:23.580Z,10.90
2022-10-23T23:47:42.717Z,10.70
2022-10-23T23:50:14.129Z,10.70
2022-10-23T23:52:41.347Z,10.60
2022-10-23T23:55:11.004Z,10.60
2022-10-23T23:57:40.348Z,10.50
